createdAt,value
2022-08-22T00:02:04.385Z,16.72
2022-08-22T00:07:12.218Z,16.71
2022-08-22T00:12:20.103Z,16.66
2022-08-22T00:17:26.627Z,16.65
2022-08-22T00:22:34.570Z,16.65
2022-08-22T00:27:42.622Z,16.65
2022-08-22T00:32:50.315Z,16.72
2022-08-22T00:37:57.979Z,16.68
2022-08-22T00:44:36.700Z,16.68
2022-08-22T00:49:43.373Z,16.53
2022-08-22T00:54:51.102Z,16.33
2022-08-22T00:59:58.787Z,16.18
2022-08-22T01:05:06.841Z,16.08
2022-08-22T01:10:15.259Z,15.97
2022-08-22T01:15:23.177Z,15.92
2022-08-22T01:20:31.284Z,15.86
2022-08-22T01:25:37.845Z,15.83
2022-08-22T01:30:44.849Z,15.86
2022-08-22T01:35:53.045Z,15.86
2022-08-22T01:41:01.824Z,15.84
2022-08-22T01:46:10.855Z,15.79
2022-08-22T01:51:19.128Z,15.75
2022-08-22T01:56:27.165Z,15.71
2022-08-22T02:01:34.463Z,15.7
2022-08-22T02:06:42.362Z,15.69
2022-08-22T02:11:49.990Z,15.69
2022-08-22T02:16:58.329Z,15.71
2022-08-22T02:22:05.680Z,15.72
2022-08-22T02:27:13.522Z,15.72
2022-08-22T02:32:20.695Z,15.71
2022-08-22T02:37:29.047Z,15.72
2022-08-22T02:42:37.523Z,15.75
2022-08-22T02:47:45.300Z,15.74
2022-08-22T02:52:53.524Z,15.8
2022-08-22T02:58:01.776Z,15.79
2022-08-22T03:03:09.591Z,15.76
2022-08-22T03:08:17.520Z,15.8
2022-08-22T03:13:33.577Z,15.8
2022-08-22T03:18:42.003Z,15.8
2022-08-22T03:23:48.698Z,15.9
2022-08-22T03:30:28.078Z,15.86
2022-08-22T03:35:34.027Z,15.88
2022-08-22T03:40:41.636Z,15.83
2022-08-22T03:45:49.510Z,15.7
2022-08-22T03:50:57.532Z,15.54
2022-08-22T03:56:12.397Z,15.49
2022-08-22T04:01:19.830Z,15.46
2022-08-22T04:06:26.946Z,15.33
2022-08-22T04:11:34.619Z,15.29
2022-08-22T04:16:42.519Z,15.24
2022-08-22T04:21:49.659Z,15.14
2022-08-22T04:26:57.652Z,15.09
2022-08-22T04:32:06.122Z,15.13
2022-08-22T04:37:13.215Z,15.15
2022-08-22T04:42:20.725Z,15.16
2022-08-22T04:47:28.219Z,15.08
2022-08-22T04:52:35.995Z,15.02
2022-08-22T04:57:43.990Z,15.02
2022-08-22T05:02:52.317Z,15.04
2022-08-22T05:08:00.395Z,15.06
2022-08-22T05:13:08.887Z,15.12
2022-08-22T05:18:17.142Z,15.17
2022-08-22T05:23:24.424Z,15.13
2022-08-22T05:28:32.623Z,15.07
2022-08-22T05:33:41.210Z,15.1
2022-08-22T05:38:49.403Z,15.11
2022-08-22T05:43:57.527Z,15.16
2022-08-22T05:49:06.003Z,15.16
2022-08-22T05:54:13.339Z,15.13
2022-08-22T05:59:21.178Z,15.13
2022-08-22T06:04:29.600Z,15.11
2022-08-22T06:09:37.694Z,15.14
2022-08-22T06:14:45.412Z,15.16
2022-08-22T06:19:53.810Z,15.21
2022-08-22T06:25:03.782Z,15.28
2022-08-22T06:30:10.925Z,15.34
2022-08-22T06:35:18.486Z,15.38
2022-08-22T06:40:26.406Z,15.5
2022-08-22T06:45:34.495Z,15.6
2022-08-22T06:50:43.380Z,15.72
2022-08-22T06:55:52.498Z,15.82
2022-08-22T07:01:00.088Z,15.88
2022-08-22T07:06:08.726Z,15.9
2022-08-22T07:11:15.433Z,15.94
2022-08-22T07:16:23.445Z,15.94
2022-08-22T07:21:32.606Z,15.98
2022-08-22T07:26:39.662Z,16.0
2022-08-22T07:31:47.422Z,15.86
2022-08-22T07:36:55.769Z,15.89
2022-08-22T07:42:03.512Z,16.09
2022-08-22T07:47:11.617Z,16.12
2022-08-22T07:52:18.784Z,16.1
2022-08-22T07:57:28.347Z,16.09
2022-08-22T08:02:35.741Z,16.17
2022-08-22T08:07:43.965Z,16.15
2022-08-22T08:12:51.491Z,16.08
2022-08-22T08:17:57.316Z,16.08
2022-08-22T08:23:05.668Z,16.02
2022-08-22T08:28:14.168Z,15.96
2022-08-22T08:33:21.759Z,15.94
2022-08-22T08:38:28.945Z,15.94
2022-08-22T08:43:36.409Z,16.06
2022-08-22T08:48:44.339Z,16.12
2022-08-22T08:53:52.626Z,16.4
2022-08-22T08:59:00.055Z,16.74
2022-08-22T09:04:08.434Z,16.98
2022-08-22T09:09:16.375Z,17.11
2022-08-22T09:14:23.906Z,17.39
2022-08-22T09:19:32.087Z,17.49
2022-08-22T09:24:39.919Z,17.52
2022-08-22T09:29:47.669Z,17.44
2022-08-22T09:34:54.294Z,17.56
2022-08-22T09:40:02.072Z,17.74
2022-08-22T09:45:10.486Z,17.91
2022-08-22T09:50:18.008Z,18.2
2022-08-22T09:55:25.685Z,18.34
2022-08-22T10:00:34.139Z,18.71
2022-08-22T10:05:41.490Z,18.78
2022-08-22T10:10:49.178Z,18.89
2022-08-22T10:15:56.629Z,18.52
2022-08-22T10:21:04.539Z,18.97
2022-08-22T10:26:52.428Z,18.74
2022-08-22T10:32:00.215Z,18.46
2022-08-22T10:37:06.787Z,18.25
2022-08-22T10:42:14.620Z,17.9
2022-08-22T10:47:21.829Z,17.66
2022-08-22T10:52:29.863Z,17.56
2022-08-22T10:57:36.872Z,17.46
2022-08-22T11:02:44.097Z,17.41
2022-08-22T11:07:51.714Z,17.57
2022-08-22T11:12:58.965Z,17.88
2022-08-22T11:18:15.515Z,18.0
2022-08-22T11:23:23.099Z,17.94
2022-08-22T11:28:30.650Z,18.38
2022-08-22T11:33:39.115Z,18.8
2022-08-22T11:38:47.761Z,18.46
2022-08-22T11:43:56.779Z,18.2
2022-08-22T11:49:04.575Z,18.16
2022-08-22T11:54:12.484Z,18.32
2022-08-22T11:59:20.394Z,18.29
2022-08-22T12:04:28.248Z,18.3
2022-08-22T12:09:34.954Z,18.5
2022-08-22T12:14:43.190Z,18.56
2022-08-22T12:19:51.477Z,18.8
2022-08-22T12:25:00.077Z,18.98
2022-08-22T12:30:08.730Z,18.86
2022-08-22T12:35:15.450Z,18.78
2022-08-22T12:40:23.945Z,19.0
2022-08-22T12:45:31.032Z,18.44
2022-08-22T12:50:39.139Z,18.2
2022-08-22T12:55:46.148Z,18.09
2022-08-22T13:00:54.623Z,18.06
2022-08-22T13:06:03.616Z,18.11
2022-08-22T13:11:11.737Z,18.08
2022-08-22T13:16:19.834Z,18.02
2022-08-22T13:21:28.404Z,18.08
2022-08-22T13:26:37.529Z,18.17
2022-08-22T13:31:44.572Z,18.26
2022-08-22T13:36:52.721Z,18.17
2022-08-22T13:42:00.528Z,18.11
2022-08-22T13:47:08.173Z,18.15
2022-08-22T13:52:14.956Z,18.17
2022-08-22T13:57:23.291Z,18.21
2022-08-22T14:02:30.627Z,18.33
2022-08-22T14:07:37.801Z,18.32
2022-08-22T14:12:45.658Z,18.26
2022-08-22T14:17:54.086Z,18.12
2022-08-22T14:23:00.511Z,18.15
2022-08-22T14:28:09.677Z,18.08
2022-08-22T14:33:17.530Z,17.9
2022-08-22T14:38:24.981Z,17.75
2022-08-22T14:43:33.207Z,17.86
2022-08-22T14:48:41.002Z,17.72
2022-08-22T14:53:47.676Z,17.52
2022-08-22T14:58:54.941Z,17.34
2022-08-22T15:04:03.667Z,17.3
2022-08-22T15:09:10.090Z,17.52
2022-08-22T15:14:18.967Z,17.56
2022-08-22T15:19:26.670Z,17.65
2022-08-22T15:24:34.258Z,17.59
2022-08-22T15:29:42.490Z,17.79
2022-08-22T15:34:50.239Z,17.8
2022-08-22T15:39:57.681Z,17.73
2022-08-22T15:45:04.296Z,17.7
2022-08-22T15:50:11.420Z,17.64
2022-08-22T15:55:19.070Z,17.52
2022-08-22T16:00:27.597Z,17.2
2022-08-22T16:05:34.306Z,17.06
2022-08-22T16:10:41.497Z,16.91
2022-08-22T16:15:48.097Z,16.84
2022-08-22T16:20:56.705Z,16.79
2022-08-22T16:26:05.532Z,16.76
2022-08-22T16:31:19.440Z,16.79
2022-08-22T16:36:27.071Z,16.7
2022-08-22T16:41:33.854Z,16.59
2022-08-22T16:46:43.107Z,16.48
2022-08-22T16:51:49.941Z,16.5
2022-08-22T16:56:57.187Z,16.4
2022-08-22T17:02:04.475Z,16.12
2022-08-22T17:07:13.373Z,15.92
2022-08-22T17:12:20.737Z,15.79
2022-08-22T17:17:27.289Z,15.74
2022-08-22T17:22:35.317Z,15.68
2022-08-22T17:27:43.023Z,15.67
2022-08-22T17:32:50.141Z,15.66
2022-08-22T17:37:57.785Z,15.67
2022-08-22T17:43:06.330Z,15.69
2022-08-22T17:48:13.829Z,15.71
2022-08-22T17:53:21.323Z,15.7
2022-08-22T17:58:29.454Z,15.7
2022-08-22T18:03:37.292Z,15.72
2022-08-22T18:08:50.162Z,15.72
2022-08-22T18:13:56.895Z,15.72
2022-08-22T18:19:03.845Z,15.7
2022-08-22T18:24:11.129Z,15.7
2022-08-22T18:29:18.330Z,15.72
2022-08-22T18:34:25.524Z,15.79
2022-08-22T18:39:32.765Z,15.82
2022-08-22T18:44:41.043Z,15.82
2022-08-22T18:49:48.754Z,15.88
2022-08-22T18:54:56.883Z,15.88
2022-08-22T19:00:03.421Z,15.85
2022-08-22T19:05:12.061Z,15.85
2022-08-22T19:10:20.439Z,15.88
2022-08-22T19:15:26.972Z,15.85
2022-08-22T19:20:35.570Z,15.82
2022-08-22T19:25:43.265Z,15.8
2022-08-22T19:30:51.111Z,15.8
2022-08-22T19:35:58.334Z,15.82
2022-08-22T19:41:05.679Z,15.79
2022-08-22T19:46:13.568Z,15.78
2022-08-22T19:51:21.749Z,15.76
2022-08-22T19:56:29.236Z,15.78
2022-08-22T20:01:37.324Z,15.8
2022-08-22T20:06:45.508Z,15.78
2022-08-22T20:11:52.759Z,15.78
2022-08-22T20:17:01.176Z,15.75
2022-08-22T20:22:09.165Z,15.8
2022-08-22T20:27:17.184Z,15.82
2022-08-22T20:32:24.961Z,15.88
2022-08-22T20:37:32.889Z,15.9
2022-08-22T20:42:40.409Z,15.92
2022-08-22T20:47:48.867Z,15.94
2022-08-22T20:52:56.536Z,15.86
2022-08-22T20:58:03.784Z,15.55
2022-08-22T21:03:11.433Z,15.26
2022-08-22T21:08:19.145Z,15.16
2022-08-22T21:13:27.423Z,15.11
2022-08-22T21:18:36.086Z,15.05
2022-08-22T21:23:43.648Z,15.02
2022-08-22T21:28:51.419Z,14.98
2022-08-22T21:33:58.886Z,14.96
2022-08-22T21:39:07.262Z,14.98
2022-08-22T21:44:15.449Z,15.02
2022-08-22T21:49:22.121Z,15.02
2022-08-22T21:54:30.015Z,15.07
2022-08-22T21:59:38.295Z,15.1
2022-08-22T22:04:46.803Z,15.12
2022-08-22T22:09:54.773Z,15.14
2022-08-22T22:15:02.789Z,15.2
2022-08-22T22:20:09.813Z,15.22
2022-08-22T22:25:18.055Z,15.28
2022-08-22T22:30:26.333Z,15.29
2022-08-22T22:35:34.613Z,15.3
2022-08-22T22:40:43.863Z,15.29
2022-08-22T22:45:51.573Z,15.3
2022-08-22T22:50:58.804Z,15.32
2022-08-22T22:56:06.245Z,15.29
2022-08-22T23:01:14.065Z,15.36
2022-08-22T23:06:30.281Z,15.38
2022-08-22T23:11:37.627Z,15.35
2022-08-22T23:16:45.712Z,15.38
2022-08-22T23:21:53.540Z,15.42
2022-08-22T23:27:01.484Z,15.44
2022-08-22T23:32:08.596Z,15.42
2022-08-22T23:37:15.101Z,15.42
2022-08-22T23:42:23.023Z,15.4
2022-08-22T23:47:30.860Z,15.36
2022-08-22T23:52:38.009Z,15.33
2022-08-22T23:57:45.869Z,15.21
